NIC weather

CLOSED Nicosia International Airport
Nicosia, Nicosia District, Cyprus

Public forecast

Using degrees Celsius for public forecast. Weather courtesy of forecast.io.

METAR (pilot weather report)

Closest report is Ercan International Airport, 10.7 nm (19.8 km) E. Retrieved 2019/06/25 16:20 UTC (35 minutes ago):

LCEN 251620Z 30013KT CAVOK 34/12 Q1008 NOSIG RMK RWY11 30013KT

TAF (pilot weather forecast)

Closest forecast is Ercan International Airport, 10.7 nm (19.8 km) E. Retrieved 2019/06/25 12:03 UTC (5 hours ago):

TAF TAF LCEN 251040Z 2512/2612 12012KT CAVOK